Time;durP1;ratioP1;P1;durP2;ratioP2;P2;SDS_P1;SDS_P2;PMS_P1;PMS_P2;Temp;Humidity;BMP_temperature;BMP_pressure;BME280_temperature;BME280_humidity;BME280_pressure;Samples;Min_cycle;Max_cycle;Signal;HPM_P1;HPM_P2
2022/09/07 06:11:46;;;;;;;13.27;4.32;;;;;;;;;;5148977;24;20059;-67
2022/09/07 06:14:12;;;;;;;12.93;5.10;;;;;;;;;;4787166;29;20504;-67
2022/09/07 06:16:39;;;;;;;15.23;5.35;;;;;;;;;;4790642;29;20041;-68
2022/09/07 06:19:06;;;;;;;13.07;4.70;;;;;;;;;;4788146;29;20035;-67
2022/09/07 06:21:36;;;;;;;10.85;4.95;;;;;;;;;;4789012;29;20042;-67
2022/09/07 06:24:03;;;;;;;14.48;5.07;;;;;;;;;;4788192;30;20037;-67
2022/09/07 06:26:29;;;;;;;15.88;5.05;;;;;;;;;;4788276;30;20039;-67
2022/09/07 06:28:56;;;;;;;12.00;4.82;;;;;;;;;;4787393;29;20027;-67
2022/09/07 06:31:23;;;;;;;12.80;5.10;;;;;;;;;;4788974;29;20408;-67
2022/09/07 06:33:49;;;;;;;14.98;5.60;;;;;;;;;;4786269;30;20093;-68
2022/09/07 06:36:20;;;;;;;8.88;4.85;;;;;;;;;;4787577;30;20058;-67
2022/09/07 06:38:47;;;;;;;10.70;5.05;;;;;;;;;;4788031;29;20051;-67
2022/09/07 06:41:18;;;;;;;14.55;5.35;;;;;;;;;;4787658;30;20145;-67
2022/09/07 06:43:44;;;;;;;8.75;5.05;;;;;;;;;;4786767;29;20531;-67
2022/09/07 06:46:11;;;;;;;13.07;6.20;;;;;;;;;;4787279;29;20050;-68
2022/09/07 06:48:37;;;;;;;12.52;6.25;;;;;;;;;;4789159;29;20024;-67
2022/09/07 06:51:04;;;;;;;17.85;8.57;;;;;;;;;;4787299;30;20047;-68
2022/09/07 06:53:31;;;;;;;15.63;9.70;;;;;;;;;;4786418;30;20377;-67
2022/09/07 06:55:58;;;;;;;12.65;8.32;;;;;;;;;;4787390;30;20408;-68
2022/09/07 06:58:25;;;;;;;12.93;7.88;;;;;;;;;;4786927;29;20098;-68
2022/09/07 07:00:52;;;;;;;13.90;6.85;;;;;;;;;;4787259;30;20041;-68
2022/09/07 07:03:19;;;;;;;15.60;6.55;;;;;;;;;;4784640;29;20039;-68
2022/09/07 07:05:52;;;;;;;10.20;5.68;;;;;;;;;;4788880;29;20043;-68
2022/09/07 07:08:19;;;;;;;10.35;5.38;;;;;;;;;;4785709;30;20497;-67
2022/09/07 07:10:45;;;;;;;13.75;5.50;;;;;;;;;;4786660;29;20066;-68
2022/09/07 07:13:12;;;;;;;11.02;5.20;;;;;;;;;;4784787;29;20576;-69
2022/09/07 07:15:38;;;;;;;15.10;5.88;;;;;;;;;;4784723;30;20095;-68
2022/09/07 07:18:05;;;;;;;8.90;5.57;;;;;;;;;;4787389;29;20032;-67
2022/09/07 07:20:31;;;;;;;9.57;5.28;;;;;;;;;;4788546;29;20037;-68
2022/09/07 07:22:57;;;;;;;13.73;5.05;;;;;;;;;;4797669;29;20397;-67
2022/09/07 07:25:24;;;;;;;10.32;6.45;;;;;;;;;;4799628;29;20045;-68
2022/09/07 07:27:50;;;;;;;17.52;5.90;;;;;;;;;;4794811;29;20415;-67
2022/09/07 07:30:17;;;;;;;13.93;6.82;;;;;;;;;;4794731;29;20050;-67
2022/09/07 07:32:44;;;;;;;15.52;6.68;;;;;;;;;;4796910;29;20023;-67
2022/09/07 07:35:10;;;;;;;9.38;6.07;;;;;;;;;;4789479;29;20039;-67
2022/09/07 07:37:37;;;;;;;11.48;6.80;;;;;;;;;;4786072;29;20019;-68
2022/09/07 07:40:05;;;;;;;9.25;6.90;;;;;;;;;;4794617;29;20027;-67
2022/09/07 07:42:32;;;;;;;12.20;6.43;;;;;;;;;;4785926;30;20027;-68
2022/09/07 07:44:59;;;;;;;10.15;6.20;;;;;;;;;;4786257;30;20063;-67
2022/09/07 07:47:25;;;;;;;9.85;6.10;;;;;;;;;;4784865;29;20038;-68
2022/09/07 07:49:52;;;;;;;9.60;5.75;;;;;;;;;;4803152;29;20042;-68
2022/09/07 07:52:18;;;;;;;11.40;5.50;;;;;;;;;;4804480;29;20034;-67
2022/09/07 07:54:45;;;;;;;7.53;5.35;;;;;;;;;;4805653;29;20033;-66
2022/09/07 07:57:11;;;;;;;10.02;6.07;;;;;;;;;;4792357;29;20035;-68
2022/09/07 07:59:38;;;;;;;10.65;5.90;;;;;;;;;;4802620;29;20033;-68
2022/09/07 08:02:07;;;;;;;11.77;5.82;;;;;;;;;;4805074;29;20035;-67
2022/09/07 08:04:34;;;;;;;10.63;5.30;;;;;;;;;;4789962;30;20034;-68
2022/09/07 08:07:01;;;;;;;10.40;5.35;;;;;;;;;;4788477;29;20492;-67
2022/09/07 08:09:28;;;;;;;10.77;5.25;;;;;;;;;;4789283;30;20491;-67
2022/09/07 08:11:54;;;;;;;7.57;5.03;;;;;;;;;;4789704;30;20524;-67
2022/09/07 08:14:20;;;;;;;8.07;5.38;;;;;;;;;;4787071;29;20031;-67
2022/09/07 08:16:47;;;;;;;9.15;5.65;;;;;;;;;;4789135;29;20035;-67
2022/09/07 08:19:15;;;;;;;10.15;5.22;;;;;;;;;;4789660;30;20031;-67
2022/09/07 08:21:42;;;;;;;10.00;5.70;;;;;;;;;;4789515;30;20023;-68
2022/09/07 08:24:08;;;;;;;11.15;5.13;;;;;;;;;;4788771;30;20038;-68
2022/09/07 08:26:34;;;;;;;11.60;4.38;;;;;;;;;;4788834;29;20424;-67
2022/09/07 08:29:01;;;;;;;7.28;4.50;;;;;;;;;;4788961;30;20031;-68
2022/09/07 08:31:27;;;;;;;13.18;4.68;;;;;;;;;;4789278;30;20039;-68
2022/09/07 08:33:53;;;;;;;8.68;4.22;;;;;;;;;;4789348;30;20224;-67
2022/09/07 08:36:20;;;;;;;6.50;3.17;;;;;;;;;;4788970;29;20043;-68
2022/09/07 08:38:47;;;;;;;9.77;3.60;;;;;;;;;;4797016;29;20035;-67
2022/09/07 08:41:31;;;;;;;9.55;3.90;;;;;;;;;;4794766;29;20033;-67
2022/09/07 08:44:09;;;;;;;7.82;4.40;;;;;;;;;;4795030;29;20030;-68
2022/09/07 08:46:44;;;;;;;6.63;3.20;;;;;;;;;;4803093;29;20031;-68
2022/09/07 08:49:15;;;;;;;9.02;3.40;;;;;;;;;;4789111;30;20031;-68
2022/09/07 08:51:45;;;;;;;5.38;3.45;;;;;;;;;;4788841;29;20031;-68
2022/09/07 08:54:13;;;;;;;15.98;3.63;;;;;;;;;;4788575;29;20050;-68
2022/09/07 08:56:42;;;;;;;9.32;3.88;;;;;;;;;;4798220;29;20037;-69
2022/09/07 08:59:18;;;;;;;8.98;4.15;;;;;;;;;;4805638;29;20031;-68
2022/09/07 09:01:44;;;;;;;14.02;3.63;;;;;;;;;;4803821;29;20041;-66
2022/09/07 09:04:15;;;;;;;5.25;3.58;;;;;;;;;;4793636;29;20106;-66
2022/09/07 09:06:51;;;;;;;8.73;4.10;;;;;;;;;;4787232;29;20041;-65
2022/09/07 09:09:36;;;;;;;6.30;3.22;;;;;;;;;;4788883;30;20038;-67
2022/09/07 09:12:12;;;;;;;8.10;3.33;;;;;;;;;;4805944;29;20516;-66
2022/09/07 09:14:41;;;;;;;9.10;3.25;;;;;;;;;;4794407;29;20038;-66
2022/09/07 09:17:09;;;;;;;10.80;2.90;;;;;;;;;;4786174;30;20035;-66
2022/09/07 09:19:41;;;;;;;9.05;3.13;;;;;;;;;;4788256;30;20405;-66
2022/09/07 09:22:10;;;;;;;6.25;3.03;;;;;;;;;;4788152;30;20410;-66
2022/09/07 09:24:38;;;;;;;6.40;2.45;;;;;;;;;;4788406;30;20527;-67
2022/09/07 09:27:04;;;;;;;3.35;2.08;;;;;;;;;;4788417;29;20118;-66
2022/09/07 09:29:30;;;;;;;5.95;2.53;;;;;;;;;;4788674;30;20043;-66
2022/09/07 09:31:57;;;;;;;11.02;2.78;;;;;;;;;;4788284;30;20397;-66
2022/09/07 09:34:23;;;;;;;6.53;2.38;;;;;;;;;;4788229;29;20031;-66
2022/09/07 09:36:51;;;;;;;6.63;2.60;;;;;;;;;;4791077;29;20424;-65
2022/09/07 09:39:28;;;;;;;10.20;2.80;;;;;;;;;;4787827;30;20039;-66
2022/09/07 09:41:56;;;;;;;4.40;2.05;;;;;;;;;;4801124;29;20023;-66
2022/09/07 09:44:22;;;;;;;6.10;2.30;;;;;;;;;;4801589;29;20037;-66
2022/09/07 09:46:51;;;;;;;3.88;2.28;;;;;;;;;;4793091;29;20027;-66
2022/09/07 09:49:30;;;;;;;11.55;2.60;;;;;;;;;;4788620;29;20027;-66
2022/09/07 09:51:58;;;;;;;7.05;2.40;;;;;;;;;;4805874;29;20041;-66
2022/09/07 09:54:27;;;;;;;8.25;2.38;;;;;;;;;;4806292;29;20033;-66
2022/09/07 09:56:53;;;;;;;6.43;2.10;;;;;;;;;;4804727;29;20064;-66
2022/09/07 09:59:22;;;;;;;8.95;2.53;;;;;;;;;;4795368;29;20031;-66
2022/09/07 10:01:49;;;;;;;8.32;2.10;;;;;;;;;;4791212;29;20023;-66
2022/09/07 10:04:19;;;;;;;8.70;2.40;;;;;;;;;;4790528;29;20034;-67
2022/09/07 10:07:08;;;;;;;8.17;1.97;;;;;;;;;;4787139;30;20071;-66
2022/09/07 10:09:39;;;;;;;10.20;2.20;;;;;;;;;;4786647;29;20061;-67
2022/09/07 10:12:06;;;;;;;6.13;2.00;;;;;;;;;;4787538;29;20055;-66
2022/09/07 10:14:34;;;;;;;4.90;1.90;;;;;;;;;;4782103;30;20028;-66
2022/09/07 10:17:09;;;;;;;4.47;1.67;;;;;;;;;;4793884;29;20488;-66
2022/09/07 10:19:40;;;;;;;6.78;1.58;;;;;;;;;;4795379;29;20031;-66
2022/09/07 10:22:19;;;;;;;9.52;1.77;;;;;;;;;;4792958;29;20059;-68
2022/09/07 10:24:46;;;;;;;6.47;1.90;;;;;;;;;;4799650;29;20038;-68
2022/09/07 10:27:39;;;;;;;6.85;1.98;;;;;;;;;;4805821;29;20100;-67
2022/09/07 10:30:16;;;;;;;5.68;1.67;;;;;;;;;;4804816;29;20493;-68
2022/09/07 10:32:52;;;;;;;8.32;1.77;;;;;;;;;;4805638;29;20041;-68
2022/09/07 10:35:21;;;;;;;5.30;1.80;;;;;;;;;;4787912;29;20061;-68
2022/09/07 10:37:53;;;;;;;4.63;1.90;;;;;;;;;;4789025;29;20035;-68
2022/09/07 10:40:28;;;;;;;7.45;1.77;;;;;;;;;;4804915;29;20509;-68
2022/09/07 10:42:57;;;;;;;6.32;1.88;;;;;;;;;;4804698;29;20637;-68
2022/09/07 10:45:30;;;;;;;4.82;1.65;;;;;;;;;;4802987;29;20046;-67
2022/09/07 10:48:03;;;;;;;9.90;2.05;;;;;;;;;;4795487;29;20034;-67
2022/09/07 10:50:38;;;;;;;3.45;1.65;;;;;;;;;;4795120;29;20497;-67
2022/09/07 10:53:13;;;;;;;6.35;1.98;;;;;;;;;;4794794;29;20032;-67
2022/09/07 10:55:42;;;;;;;3.83;1.80;;;;;;;;;;4793691;29;20031;-68
2022/09/07 10:58:14;;;;;;;10.32;1.83;;;;;;;;;;4795596;29;20496;-67
2022/09/07 11:00:48;;;;;;;5.05;1.55;;;;;;;;;;4793770;29;20041;-67
2022/09/07 11:03:22;;;;;;;7.88;2.08;;;;;;;;;;4791999;29;20023;-67
2022/09/07 11:06:04;;;;;;;8.48;1.90;;;;;;;;;;4787489;29;20083;-67
2022/09/07 11:08:33;;;;;;;6.88;1.50;;;;;;;;;;4787622;30;20027;-67
2022/09/07 11:11:02;;;;;;;7.38;1.85;;;;;;;;;;4787018;30;20111;-67
2022/09/07 11:13:32;;;;;;;6.53;1.70;;;;;;;;;;4785217;29;20523;-67
2022/09/07 11:16:01;;;;;;;7.03;1.50;;;;;;;;;;4781545;29;20035;-67
2022/09/07 11:18:35;;;;;;;10.48;2.00;;;;;;;;;;4798639;29;20039;-66
2022/09/07 11:21:02;;;;;;;6.05;1.67;;;;;;;;;;4786454;29;20493;-67
2022/09/07 11:23:54;;;;;;;7.05;2.10;;;;;;;;;;4786455;29;20109;-68
2022/09/07 11:26:28;;;;;;;5.60;1.73;;;;;;;;;;4785510;29;20489;-67
2022/09/07 11:29:01;;;;;;;4.22;1.50;;;;;;;;;;4786118;29;20032;-66
2022/09/07 11:31:36;;;;;;;7.30;1.98;;;;;;;;;;4798441;29;20039;-68
2022/09/07 11:34:06;;;;;;;6.15;2.10;;;;;;;;;;4804664;29;20027;-67
2022/09/07 11:36:35;;;;;;;8.85;1.98;;;;;;;;;;4804904;29;20027;-67
2022/09/07 11:39:12;;;;;;;7.63;1.60;;;;;;;;;;4804309;29;20071;-67
2022/09/07 11:41:41;;;;;;;6.47;1.90;;;;;;;;;;4803454;29;20037;-66
2022/09/07 11:44:26;;;;;;;11.02;1.80;;;;;;;;;;4804516;29;20077;-68
2022/09/07 11:47:19;;;;;;;9.27;1.70;;;;;;;;;;4801112;29;20026;-67
2022/09/07 11:49:45;;;;;;;12.05;1.83;;;;;;;;;;4783422;30;20141;-68
2022/09/07 11:52:24;;;;;;;5.20;1.70;;;;;;;;;;4784455;30;20043;-68
2022/09/07 11:54:54;;;;;;;7.82;1.85;;;;;;;;;;4783664;30;20049;-67
2022/09/07 11:57:20;;;;;;;;;;;;;;;;;;4784705;30;20470;-67
2022/09/07 11:59:59;;;;;;;7.93;2.25;;;;;;;;;;4784045;30;19919;-68
2022/09/07 12:02:37;;;;;;;6.63;1.90;;;;;;;;;;4783817;30;20509;-67
2022/09/07 12:05:23;;;;;;;5.65;1.70;;;;;;;;;;4784064;30;20051;-68
2022/09/07 12:07:55;;;;;;;6.60;2.00;;;;;;;;;;4784020;30;20035;-67
2022/09/07 12:10:45;;;;;;;7.20;1.60;;;;;;;;;;4782730;30;20055;-68
2022/09/07 12:13:11;;;;;;;4.28;1.65;;;;;;;;;;4783864;30;20051;-68
2022/09/07 12:15:46;;;;;;;5.40;1.30;;;;;;;;;;4784296;30;20053;-68
2022/09/07 12:18:21;;;;;;;6.55;1.60;;;;;;;;;;4784147;30;20567;-68
2022/09/07 12:20:48;;;;;;;4.55;1.63;;;;;;;;;;4769202;30;20043;-68
2022/09/07 12:23:15;;;;;;;7.55;1.80;;;;;;;;;;4784136;30;20046;-68
2022/09/07 12:25:42;;;;;;;6.03;1.60;;;;;;;;;;4784270;30;20043;-68
2022/09/07 12:28:16;;;;;;;13.30;2.15;;;;;;;;;;4786341;29;20519;-68
2022/09/07 12:30:54;;;;;;;8.90;1.63;;;;;;;;;;4785909;29;20035;-68
2022/09/07 12:33:22;;;;;;;13.90;1.85;;;;;;;;;;4786128;30;20032;-68
2022/09/07 12:35:48;;;;;;;9.52;2.03;;;;;;;;;;4786169;30;20032;-69
2022/09/07 12:38:18;;;;;;;7.72;1.98;;;;;;;;;;4786096;29;20031;-68
2022/09/07 12:40:57;;;;;;;7.60;1.70;;;;;;;;;;4787672;29;20035;-68
2022/09/07 12:43:34;;;;;;;8.05;2.28;;;;;;;;;;4789762;29;20095;-68
2022/09/07 12:46:00;;;;;;;9.55;1.70;;;;;;;;;;4789307;30;20027;-68
2022/09/07 12:48:33;;;;;;;4.75;1.90;;;;;;;;;;4789579;30;20032;-68
2022/09/07 12:51:25;;;;;;;6.28;1.40;;;;;;;;;;4789117;30;20039;-68
2022/09/07 12:54:18;;;;;;;4.75;1.52;;;;;;;;;;4788288;30;20382;-68
2022/09/07 12:56:46;;;;;;;5.97;1.65;;;;;;;;;;4788231;30;20043;-67
2022/09/07 12:59:34;;;;;;;7.95;1.80;;;;;;;;;;4789242;29;20083;-68
2022/09/07 13:02:06;;;;;;;7.18;1.73;;;;;;;;;;4789137;30;20035;-68
2022/09/07 13:04:32;;;;;;;7.70;1.85;;;;;;;;;;4789240;29;20490;-68
2022/09/07 13:07:18;;;;;;;6.65;1.88;;;;;;;;;;4792196;29;20030;-67
2022/09/07 13:09:55;;;;;;;8.32;1.73;;;;;;;;;;4807052;29;20059;-68
2022/09/07 13:12:24;;;;;;;6.00;1.98;;;;;;;;;;4806849;29;20051;-68
2022/09/07 13:14:55;;;;;;;6.57;1.85;;;;;;;;;;4799161;29;20042;-67
2022/09/07 13:17:28;;;;;;;9.43;2.25;;;;;;;;;;4771091;30;20022;-68
2022/09/07 13:19:54;;;;;;;6.57;2.13;;;;;;;;;;4771351;30;20035;-68
2022/09/07 13:22:29;;;;;;;11.50;2.28;;;;;;;;;;4770878;30;20443;-68
2022/09/07 13:25:16;;;;;;;10.45;1.92;;;;;;;;;;4770980;30;20024;-68
2022/09/07 13:27:59;;;;;;;7.28;1.92;;;;;;;;;;4763586;30;20036;-68
2022/09/07 13:30:28;;;;;;;8.90;2.10;;;;;;;;;;4770318;30;20043;-67
2022/09/07 13:33:13;;;;;;;8.05;1.85;;;;;;;;;;4770753;30;20555;-67
2022/09/07 13:35:44;;;;;;;9.15;2.13;;;;;;;;;;4769872;30;20038;-67
2022/09/07 13:38:11;;;;;;;6.05;1.95;;;;;;;;;;4788002;29;20511;-67
2022/09/07 13:40:39;;;;;;;9.20;2.20;;;;;;;;;;4788840;30;20031;-67
2022/09/07 13:43:11;;;;;;;8.18;2.30;;;;;;;;;;4788097;29;20039;-67
2022/09/07 13:45:46;;;;;;;7.45;2.05;;;;;;;;;;4788294;30;20453;-68
2022/09/07 13:48:32;;;;;;;7.55;2.13;;;;;;;;;;4788206;30;20031;-67
2022/09/07 13:51:19;;;;;;;7.82;2.08;;;;;;;;;;4787957;30;20043;-66
2022/09/07 13:53:52;;;;;;;6.55;2.08;;;;;;;;;;4792852;29;20032;-67
2022/09/07 13:56:23;;;;;;;6.28;2.10;;;;;;;;;;4796288;29;20458;-67
2022/09/07 13:58:50;;;;;;;5.72;2.00;;;;;;;;;;4797034;29;20390;-67
2022/09/07 14:01:22;;;;;;;7.65;2.40;;;;;;;;;;4796662;29;20027;-66
2022/09/07 14:03:51;;;;;;;7.05;2.30;;;;;;;;;;4792974;29;20023;-68
2022/09/07 14:06:20;;;;;;;7.63;2.28;;;;;;;;;;4799445;29;20080;-67
2022/09/07 14:08:51;;;;;;;7.82;2.25;;;;;;;;;;4805767;29;20026;-67
2022/09/07 14:11:25;;;;;;;11.32;2.78;;;;;;;;;;4804526;29;20504;-67
2022/09/07 14:14:06;;;;;;;8.25;2.50;;;;;;;;;;4804921;29;20042;-66
2022/09/07 14:16:33;;;;;;;8.48;2.35;;;;;;;;;;4786566;29;20102;-68
2022/09/07 14:19:00;;;;;;;6.18;2.17;;;;;;;;;;4795316;29;20027;-67
2022/09/07 14:21:27;;;;;;;8.95;2.38;;;;;;;;;;4795937;29;20065;-67
2022/09/07 14:23:54;;;;;;;8.38;2.10;;;;;;;;;;4797192;29;20031;-67
2022/09/07 14:26:22;;;;;;;10.82;2.40;;;;;;;;;;4795417;29;20587;-67
2022/09/07 14:28:50;;;;;;;7.43;2.33;;;;;;;;;;4797086;29;20424;-67
2022/09/07 14:31:18;;;;;;;10.52;2.33;;;;;;;;;;4795201;29;20039;-67
2022/09/07 14:34:05;;;;;;;9.00;2.22;;;;;;;;;;4796306;29;20039;-67
2022/09/07 14:36:32;;;;;;;12.25;2.40;;;;;;;;;;4805959;29;20049;-67
2022/09/07 14:38:59;;;;;;;8.50;2.28;;;;;;;;;;4798852;29;20027;-68
2022/09/07 14:41:30;;;;;;;7.82;2.28;;;;;;;;;;4804209;29;20407;-67
2022/09/07 14:43:57;;;;;;;6.35;2.22;;;;;;;;;;4805054;29;20091;-68
2022/09/07 14:46:28;;;;;;;10.13;2.55;;;;;;;;;;4805647;29;20029;-67
2022/09/07 14:48:56;;;;;;;12.65;2.83;;;;;;;;;;4805699;29;20037;-67
2022/09/07 14:51:26;;;;;;;9.88;2.20;;;;;;;;;;4805688;29;20389;-67
2022/09/07 14:53:54;;;;;;;9.55;2.45;;;;;;;;;;4805604;29;20374;-67
2022/09/07 14:56:23;;;;;;;11.00;2.50;;;;;;;;;;4805325;29;20027;-68
2022/09/07 14:58:51;;;;;;;7.80;2.28;;;;;;;;;;4805768;29;20035;-67
2022/09/07 15:01:19;;;;;;;7.45;2.38;;;;;;;;;;4805603;29;20027;-67
2022/09/07 15:03:45;;;;;;;9.23;2.42;;;;;;;;;;4805382;29;20027;-67
2022/09/07 15:06:12;;;;;;;9.75;2.47;;;;;;;;;;4805457;29;20027;-68
2022/09/07 15:08:39;;;;;;;10.20;2.60;;;;;;;;;;4805461;29;20026;-68
2022/09/07 15:11:08;;;;;;;9.63;2.67;;;;;;;;;;4804871;29;20065;-67
2022/09/07 15:13:35;;;;;;;8.80;2.42;;;;;;;;;;4805312;29;20038;-68
2022/09/07 15:16:04;;;;;;;7.47;2.20;;;;;;;;;;4789036;29;20084;-67
2022/09/07 15:18:46;;;;;;;7.80;2.70;;;;;;;;;;4786098;29;20028;-67
2022/09/07 15:21:12;;;;;;;7.90;2.33;;;;;;;;;;4787332;30;20041;-67
2022/09/07 15:23:38;;;;;;;15.38;2.80;;;;;;;;;;4787418;30;20027;-67
2022/09/07 15:26:05;;;;;;;13.70;3.05;;;;;;;;;;4787112;30;20515;-67
2022/09/07 15:28:32;;;;;;;9.30;2.47;;;;;;;;;;4787324;30;20045;-66
2022/09/07 15:30:59;;;;;;;10.75;2.70;;;;;;;;;;4787079;30;20039;-67
2022/09/07 15:33:25;;;;;;;9.20;2.63;;;;;;;;;;4787350;29;20045;-68
2022/09/07 15:35:52;;;;;;;14.75;3.15;;;;;;;;;;4786051;30;20039;-67
2022/09/07 15:38:19;;;;;;;12.02;2.88;;;;;;;;;;4787146;30;20031;-66
2022/09/07 15:40:55;;;;;;;11.50;2.78;;;;;;;;;;4786817;30;20408;-67
2022/09/07 15:43:22;;;;;;;14.48;3.08;;;;;;;;;;4787045;29;20404;-67
2022/09/07 15:45:49;;;;;;;13.23;3.17;;;;;;;;;;4787159;30;20412;-67
2022/09/07 15:48:16;;;;;;;9.90;2.95;;;;;;;;;;4787145;29;20038;-68
2022/09/07 15:50:42;;;;;;;9.70;2.50;;;;;;;;;;4787082;30;20398;-67
2022/09/07 15:53:10;;;;;;;11.57;3.72;;;;;;;;;;4786893;30;20416;-67
2022/09/07 15:55:36;;;;;;;10.40;2.50;;;;;;;;;;4786543;30;20034;-68
2022/09/07 15:58:03;;;;;;;10.40;2.58;;;;;;;;;;4786945;30;20034;-67
2022/09/07 16:00:29;;;;;;;11.40;2.75;;;;;;;;;;4786790;29;20031;-67
2022/09/07 16:02:56;;;;;;;17.17;3.20;;;;;;;;;;4786934;29;20427;-67
2022/09/07 16:05:23;;;;;;;9.63;3.03;;;;;;;;;;4787232;30;20023;-67
2022/09/07 16:07:49;;;;;;;13.88;3.40;;;;;;;;;;4786828;30;20035;-67
2022/09/07 16:10:16;;;;;;;9.50;2.75;;;;;;;;;;4786969;30;20045;-67
2022/09/07 16:12:42;;;;;;;12.10;3.38;;;;;;;;;;4787119;30;20043;-67
2022/09/07 16:15:09;;;;;;;10.13;2.90;;;;;;;;;;4787232;29;20031;-67
2022/09/07 16:17:35;;;;;;;16.05;3.05;;;;;;;;;;4790373;30;20043;-68
2022/09/07 16:20:02;;;;;;;16.45;2.80;;;;;;;;;;4790590;30;20039;-67
2022/09/07 16:22:28;;;;;;;16.90;2.95;;;;;;;;;;4790009;30;20054;-67
2022/09/07 16:24:55;;;;;;;11.77;3.03;;;;;;;;;;4790172;30;20032;-67
2022/09/07 16:27:21;;;;;;;9.52;2.83;;;;;;;;;;4790309;30;20058;-68
2022/09/07 16:29:48;;;;;;;11.73;3.17;;;;;;;;;;4790371;30;20035;-68
2022/09/07 16:32:14;;;;;;;15.77;2.85;;;;;;;;;;4790271;30;20061;-67
2022/09/07 16:34:41;;;;;;;14.68;3.20;;;;;;;;;;4790112;30;20168;-68
2022/09/07 16:37:07;;;;;;;13.05;3.10;;;;;;;;;;4789813;30;20087;-68
2022/09/07 16:39:34;;;;;;;18.60;4.15;;;;;;;;;;4789883;30;20396;-67
2022/09/07 16:42:00;;;;;;;11.30;3.20;;;;;;;;;;4790052;29;20031;-67
2022/09/07 16:44:26;;;;;;;10.57;3.42;;;;;;;;;;4789780;30;20063;-67
2022/09/07 16:46:53;;;;;;;9.57;3.00;;;;;;;;;;4790027;30;20045;-67
2022/09/07 16:49:20;;;;;;;12.15;3.45;;;;;;;;;;4789801;30;20050;-67
2022/09/07 16:51:46;;;;;;;12.40;2.90;;;;;;;;;;4789395;30;20043;-67
2022/09/07 16:54:14;;;;;;;14.50;2.88;;;;;;;;;;4789979;30;20042;-68
2022/09/07 16:56:41;;;;;;;12.30;3.45;;;;;;;;;;4790006;30;20045;-68
2022/09/07 16:59:08;;;;;;;12.45;3.47;;;;;;;;;;4789661;30;20031;-67
2022/09/07 17:01:36;;;;;;;11.88;3.30;;;;;;;;;;4789610;30;20027;-67
2022/09/07 17:04:03;;;;;;;13.60;3.15;;;;;;;;;;4789730;29;20119;-67
2022/09/07 17:06:30;;;;;;;13.35;3.25;;;;;;;;;;4789273;29;20036;-67
2022/09/07 17:08:58;;;;;;;11.50;3.40;;;;;;;;;;4789485;30;20027;-67
2022/09/07 17:11:25;;;;;;;9.73;2.85;;;;;;;;;;4789331;29;20047;-68
2022/09/07 17:13:52;;;;;;;18.15;3.22;;;;;;;;;;4789258;29;20044;-68
2022/09/07 17:16:37;;;;;;;16.33;3.45;;;;;;;;;;4789248;29;20047;-68
2022/09/07 17:19:05;;;;;;;10.90;3.47;;;;;;;;;;4789362;30;20034;-67
2022/09/07 17:21:32;;;;;;;12.88;3.40;;;;;;;;;;4789069;30;20027;-67
2022/09/07 17:23:59;;;;;;;14.15;3.78;;;;;;;;;;4789368;30;20404;-67
2022/09/07 17:26:25;;;;;;;15.50;3.70;;;;;;;;;;4788388;29;20039;-67
2022/09/07 17:28:52;;;;;;;17.73;3.42;;;;;;;;;;4788843;29;20039;-67
2022/09/07 17:31:23;;;;;;;19.10;3.90;;;;;;;;;;4789307;30;20035;-67
2022/09/07 17:33:50;;;;;;;13.68;3.50;;;;;;;;;;4789332;29;20033;-67
2022/09/07 17:36:18;;;;;;;11.75;3.80;;;;;;;;;;4788668;30;20493;-67
2022/09/07 17:38:44;;;;;;;11.15;3.67;;;;;;;;;;4789164;29;20041;-67
2022/09/07 17:41:12;;;;;;;14.30;3.75;;;;;;;;;;4787961;30;20035;-67
2022/09/07 17:43:39;;;;;;;14.07;3.90;;;;;;;;;;4788991;30;20056;-67
2022/09/07 17:46:13;;;;;;;12.27;4.15;;;;;;;;;;4789280;30;20043;-67
2022/09/07 17:48:39;;;;;;;15.20;4.13;;;;;;;;;;4789347;30;20030;-67
2022/09/07 17:51:07;;;;;;;15.90;3.72;;;;;;;;;;4788430;30;20049;-67
2022/09/07 17:53:34;;;;;;;11.30;3.05;;;;;;;;;;4788775;29;20489;-68
2022/09/07 17:56:01;;;;;;;14.05;3.10;;;;;;;;;;4788796;30;20039;-67
2022/09/07 17:58:27;;;;;;;10.27;3.50;;;;;;;;;;4788847;30;20035;-67
2022/09/07 18:00:53;;;;;;;15.23;3.78;;;;;;;;;;4788564;30;20027;-67
2022/09/07 18:03:20;;;;;;;10.70;3.00;;;;;;;;;;4789041;30;20477;-67
2022/09/07 18:05:52;;;;;;;7.63;2.90;;;;;;;;;;4788219;30;20023;-67
2022/09/07 18:08:18;;;;;;;8.75;2.60;;;;;;;;;;4788526;30;20027;-68
2022/09/07 18:10:44;;;;;;;7.95;2.60;;;;;;;;;;4788169;29;20039;-67
2022/09/07 18:13:11;;;;;;;8.68;2.65;;;;;;;;;;4788514;30;20424;-68
2022/09/07 18:15:38;;;;;;;6.53;2.58;;;;;;;;;;4788339;29;20041;-67
2022/09/07 18:18:05;;;;;;;6.65;2.58;;;;;;;;;;4788430;30;20028;-68
2022/09/07 18:20:32;;;;;;;9.30;3.00;;;;;;;;;;4788084;30;20091;-67
2022/09/07 18:23:00;;;;;;;11.50;2.65;;;;;;;;;;4788466;30;20035;-67
2022/09/07 18:25:26;;;;;;;17.05;3.35;;;;;;;;;;4788173;30;20039;-67
2022/09/07 18:27:53;;;;;;;8.60;2.72;;;;;;;;;;4788240;30;20465;-68
2022/09/07 18:30:19;;;;;;;8.73;2.78;;;;;;;;;;4788077;29;20455;-67
2022/09/07 18:32:45;;;;;;;6.80;2.95;;;;;;;;;;4788117;30;20031;-67
2022/09/07 18:35:12;;;;;;;8.75;2.80;;;;;;;;;;4788193;30;20489;-68
2022/09/07 18:37:38;;;;;;;7.45;2.90;;;;;;;;;;4787756;29;20028;-67
2022/09/07 18:40:04;;;;;;;10.40;2.85;;;;;;;;;;4788004;30;20022;-67
2022/09/07 18:42:31;;;;;;;8.98;3.13;;;;;;;;;;4788036;29;20039;-67
2022/09/07 18:44:57;;;;;;;7.03;2.60;;;;;;;;;;4787841;30;20034;-68
2022/09/07 18:47:24;;;;;;;10.98;2.35;;;;;;;;;;4787605;30;20039;-67
2022/09/07 18:49:50;;;;;;;7.78;2.70;;;;;;;;;;4787742;29;20043;-68
2022/09/07 18:52:17;;;;;;;6.68;2.45;;;;;;;;;;4788134;30;20041;-67
2022/09/07 18:54:44;;;;;;;8.32;2.75;;;;;;;;;;4787803;30;20400;-67
2022/09/07 18:57:10;;;;;;;10.40;3.08;;;;;;;;;;4787709;30;20038;-67
2022/09/07 18:59:36;;;;;;;6.85;2.78;;;;;;;;;;4787915;30;20037;-67
2022/09/07 19:02:03;;;;;;;8.80;2.80;;;;;;;;;;4787356;29;20035;-67
2022/09/07 19:04:29;;;;;;;9.88;2.42;;;;;;;;;;4787499;30;20035;-67
2022/09/07 19:06:56;;;;;;;7.25;2.55;;;;;;;;;;4787614;30;20438;-67
2022/09/07 19:09:22;;;;;;;9.23;2.60;;;;;;;;;;4787702;30;20355;-67
2022/09/07 19:11:48;;;;;;;8.48;2.72;;;;;;;;;;4787290;29;20428;-67
2022/09/07 19:14:16;;;;;;;7.47;2.58;;;;;;;;;;4787402;29;20031;-67
2022/09/07 19:16:45;;;;;;;11.68;2.70;;;;;;;;;;4787396;30;20031;-67
2022/09/07 19:19:13;;;;;;;8.40;2.58;;;;;;;;;;4787467;29;20043;-67
2022/09/07 19:21:41;;;;;;;8.27;2.78;;;;;;;;;;4787352;30;20038;-67
2022/09/07 19:24:10;;;;;;;5.60;2.75;;;;;;;;;;4787432;30;20106;-68
2022/09/07 19:26:37;;;;;;;6.72;2.90;;;;;;;;;;4787423;30;20509;-67
2022/09/07 19:29:11;;;;;;;6.43;2.90;;;;;;;;;;4786563;30;20043;-67
2022/09/07 19:31:37;;;;;;;7.85;2.90;;;;;;;;;;4787020;30;20525;-67
2022/09/07 19:34:04;;;;;;;10.10;3.05;;;;;;;;;;4787297;30;20038;-67
2022/09/07 19:36:31;;;;;;;8.60;2.88;;;;;;;;;;4787379;30;20039;-67
2022/09/07 19:38:58;;;;;;;10.40;2.60;;;;;;;;;;4787085;29;20033;-67
2022/09/07 19:41:24;;;;;;;9.18;2.47;;;;;;;;;;4787190;30;20562;-68
2022/09/07 19:43:51;;;;;;;6.25;2.30;;;;;;;;;;4787158;30;20477;-68
2022/09/07 19:46:18;;;;;;;10.00;2.03;;;;;;;;;;4786642;29;20401;-67
2022/09/07 19:48:44;;;;;;;7.97;2.30;;;;;;;;;;4787079;30;20042;-67
2022/09/07 19:51:13;;;;;;;6.72;2.10;;;;;;;;;;4786227;29;20047;-67
2022/09/07 19:53:45;;;;;;;8.32;2.30;;;;;;;;;;4786994;30;20529;-68
2022/09/07 19:56:22;;;;;;;4.75;1.98;;;;;;;;;;4787201;30;20039;-67
2022/09/07 19:58:49;;;;;;;5.13;1.75;;;;;;;;;;4786938;30;20371;-67
2022/09/07 20:01:17;;;;;;;4.35;1.30;;;;;;;;;;4786678;30;20072;-67
2022/09/07 20:03:45;;;;;;;4.45;1.70;;;;;;;;;;4787252;29;20062;-68
2022/09/07 20:06:16;;;;;;;3.08;1.50;;;;;;;;;;4786716;30;20043;-67
2022/09/07 20:08:43;;;;;;;5.80;1.40;;;;;;;;;;4786630;30;20507;-67
2022/09/07 20:11:10;;;;;;;5.65;1.92;;;;;;;;;;4786105;29;20056;-67
2022/09/07 20:13:37;;;;;;;5.57;1.40;;;;;;;;;;4787040;30;20039;-68
2022/09/07 20:16:04;;;;;;;3.20;1.50;;;;;;;;;;4786456;29;20030;-67
2022/09/07 20:18:31;;;;;;;4.22;1.30;;;;;;;;;;4786892;29;20035;-68
2022/09/07 20:20:57;;;;;;;4.15;1.30;;;;;;;;;;4786871;29;20026;-67
2022/09/07 20:23:23;;;;;;;3.80;1.50;;;;;;;;;;4786930;30;20034;-67
2022/09/07 20:25:56;;;;;;;6.85;1.40;;;;;;;;;;4786856;29;20030;-67
2022/09/07 20:28:23;;;;;;;2.13;1.17;;;;;;;;;;4786894;30;20033;-67
2022/09/07 20:30:49;;;;;;;6.45;1.55;;;;;;;;;;4786339;30;20031;-67
2022/09/07 20:33:16;;;;;;;6.65;1.58;;;;;;;;;;4787074;30;20035;-67
2022/09/07 20:35:42;;;;;;;2.67;1.48;;;;;;;;;;4786620;29;20027;-67
2022/09/07 20:38:10;;;;;;;2.88;1.20;;;;;;;;;;4786358;30;20507;-67
2022/09/07 20:40:36;;;;;;;4.03;1.20;;;;;;;;;;4786940;30;20023;-67
2022/09/07 20:43:03;;;;;;;3.55;1.20;;;;;;;;;;4786856;30;20396;-67
2022/09/07 20:45:30;;;;;;;5.15;1.30;;;;;;;;;;4786310;30;20034;-67
2022/09/07 20:47:56;;;;;;;2.47;1.10;;;;;;;;;;4787011;30;20047;-67
2022/09/07 20:50:23;;;;;;;8.90;1.67;;;;;;;;;;4785183;30;20037;-67
2022/09/07 20:52:49;;;;;;;6.95;1.38;;;;;;;;;;4786806;30;20041;-67
2022/09/07 20:55:15;;;;;;;3.72;1.40;;;;;;;;;;4787088;29;20023;-67
2022/09/07 20:57:42;;;;;;;4.68;1.48;;;;;;;;;;4786247;30;20031;-67
2022/09/07 21:00:08;;;;;;;6.68;1.38;;;;;;;;;;4786325;30;20034;-67
2022/09/07 21:02:34;;;;;;;3.95;1.30;;;;;;;;;;4789235;29;20037;-67